sensor_id;sensor_type;location;lat;lon;timestamp;P1;durP1;ratioP1;P2;durP2;ratioP2
9384;SDS011;4732;49.340;10.886;2023-10-09T08:11:17;12.40;;;3.95;;
9384;SDS011;4732;49.340;10.886;2023-10-09T08:14:01;10.75;;;3.60;;
9384;SDS011;4732;49.340;10.886;2023-10-09T08:16:27;11.57;;;3.90;;
9384;SDS011;4732;49.340;10.886;2023-10-09T08:19:03;16.00;;;3.78;;
9384;SDS011;4732;49.340;10.886;2023-10-09T08:21:48;21.77;;;4.45;;
9384;SDS011;4732;49.340;10.886;2023-10-09T08:24:33;20.60;;;4.13;;
9384;SDS011;4732;49.340;10.886;2023-10-09T08:27:06;14.30;;;4.15;;
9384;SDS011;4732;49.340;10.886;2023-10-09T08:29:51;18.63;;;4.38;;
9384;SDS011;4732;49.340;10.886;2023-10-09T08:32:36;12.80;;;3.80;;
9384;SDS011;4732;49.340;10.886;2023-10-09T08:35:05;20.58;;;5.10;;
9384;SDS011;4732;49.340;10.886;2023-10-09T08:37:51;10.23;;;4.07;;
9384;SDS011;4732;49.340;10.886;2023-10-09T08:40:18;20.23;;;4.80;;
9384;SDS011;4732;49.340;10.886;2023-10-09T08:42:45;11.25;;;3.50;;
9384;SDS011;4732;49.340;10.886;2023-10-09T08:45:21;15.07;;;4.45;;
9384;SDS011;4732;49.340;10.886;2023-10-09T08:47:53;15.73;;;4.55;;
9384;SDS011;4732;49.340;10.886;2023-10-09T08:50:19;9.70;;;3.88;;
9384;SDS011;4732;49.340;10.886;2023-10-09T08:52:47;12.18;;;4.40;;
9384;SDS011;4732;49.340;10.886;2023-10-09T09:12:53;16.58;;;4.50;;
9384;SDS011;4732;49.340;10.886;2023-10-09T09:15:56;20.25;;;4.35;;
9384;SDS011;4732;49.340;10.886;2023-10-09T09:18:23;13.15;;;3.67;;
9384;SDS011;4732;49.340;10.886;2023-10-09T09:20:50;17.02;;;3.80;;
9384;SDS011;4732;49.340;10.886;2023-10-09T09:23:19;12.18;;;3.55;;
9384;SDS011;4732;49.340;10.886;2023-10-09T09:25:49;17.67;;;4.70;;
9384;SDS011;4732;49.340;10.886;2023-10-09T09:28:28;17.60;;;4.85;;
9384;SDS011;4732;49.340;10.886;2023-10-09T09:31:22;14.45;;;4.30;;
9384;SDS011;4732;49.340;10.886;2023-10-09T09:33:55;18.70;;;4.53;;
9384;SDS011;4732;49.340;10.886;2023-10-09T09:36:53;14.48;;;4.00;;
9384;SDS011;4732;49.340;10.886;2023-10-09T09:40:03;10.10;;;4.20;;
9384;SDS011;4732;49.340;10.886;2023-10-09T09:42:56;8.82;;;3.72;;
9384;SDS011;4732;49.340;10.886;2023-10-09T09:46:04;12.15;;;3.85;;
9384;SDS011;4732;49.340;10.886;2023-10-09T09:48:35;19.00;;;4.50;;
9384;SDS011;4732;49.340;10.886;2023-10-09T09:51:13;14.68;;;3.80;;
9384;SDS011;4732;49.340;10.886;2023-10-09T09:54:07;14.32;;;4.32;;
9384;SDS011;4732;49.340;10.886;2023-10-09T09:56:34;15.73;;;4.40;;
9384;SDS011;4732;49.340;10.886;2023-10-09T09:59:04;18.10;;;4.65;;
9384;SDS011;4732;49.340;10.886;2023-10-09T10:01:47;15.07;;;4.15;;
9384;SDS011;4732;49.340;10.886;2023-10-09T10:04:34;14.95;;;4.20;;
9384;SDS011;4732;49.340;10.886;2023-10-09T10:07:05;17.85;;;4.28;;
9384;SDS011;4732;49.340;10.886;2023-10-09T10:09:34;18.15;;;4.63;;
9384;SDS011;4732;49.340;10.886;2023-10-09T10:12:05;17.63;;;4.32;;
9384;SDS011;4732;49.340;10.886;2023-10-09T10:17:23;18.70;;;4.00;;
9384;SDS011;4732;49.340;10.886;2023-10-09T10:22:40;25.92;;;4.85;;
9384;SDS011;4732;49.340;10.886;2023-10-09T10:28:30;14.75;;;3.90;;
9384;SDS011;4732;49.340;10.886;2023-10-09T10:31:09;15.07;;;3.95;;
9384;SDS011;4732;49.340;10.886;2023-10-09T10:36:24;9.80;;;4.13;;
9384;SDS011;4732;49.340;10.886;2023-10-09T10:39:07;14.85;;;4.22;;
9384;SDS011;4732;49.340;10.886;2023-10-09T10:41:53;19.45;;;4.38;;
9384;SDS011;4732;49.340;10.886;2023-10-09T10:44:30;17.27;;;3.67;;
9384;SDS011;4732;49.340;10.886;2023-10-09T10:47:11;19.63;;;4.50;;
9384;SDS011;4732;49.340;10.886;2023-10-09T10:49:57;16.83;;;4.05;;
9384;SDS011;4732;49.340;10.886;2023-10-09T10:52:27;19.23;;;4.20;;
9384;SDS011;4732;49.340;10.886;2023-10-09T10:55:07;14.65;;;3.78;;
9384;SDS011;4732;49.340;10.886;2023-10-09T10:58:08;18.02;;;4.25;;
9384;SDS011;4732;49.340;10.886;2023-10-09T11:00:52;12.40;;;4.43;;
9384;SDS011;4732;49.340;10.886;2023-10-09T11:03:31;16.88;;;4.32;;
9384;SDS011;4732;49.340;10.886;2023-10-09T11:06:26;18.42;;;4.07;;
9384;SDS011;4732;49.340;10.886;2023-10-09T11:09:09;14.85;;;4.30;;
9384;SDS011;4732;49.340;10.886;2023-10-09T11:11:47;14.73;;;3.85;;
9384;SDS011;4732;49.340;10.886;2023-10-09T11:14:25;13.20;;;3.60;;
9384;SDS011;4732;49.340;10.886;2023-10-09T11:16:50;14.93;;;4.15;;
9384;SDS011;4732;49.340;10.886;2023-10-09T11:19:22;16.38;;;4.15;;
9384;SDS011;4732;49.340;10.886;2023-10-09T11:21:58;16.88;;;4.03;;
9384;SDS011;4732;49.340;10.886;2023-10-09T11:24:46;21.63;;;4.38;;
9384;SDS011;4732;49.340;10.886;2023-10-09T11:27:34;12.20;;;3.58;;
9384;SDS011;4732;49.340;10.886;2023-10-09T11:30:05;17.25;;;4.05;;
9384;SDS011;4732;49.340;10.886;2023-10-09T11:32:50;9.60;;;4.07;;
9384;SDS011;4732;49.340;10.886;2023-10-09T11:35:33;26.58;;;4.55;;
9384;SDS011;4732;49.340;10.886;2023-10-09T11:37:59;17.52;;;4.68;;
9384;SDS011;4732;49.340;10.886;2023-10-09T11:40:32;22.13;;;3.90;;
9384;SDS011;4732;49.340;10.886;2023-10-09T11:43:27;12.00;;;3.90;;
9384;SDS011;4732;49.340;10.886;2023-10-09T11:46:19;15.60;;;4.07;;
9384;SDS011;4732;49.340;10.886;2023-10-09T11:49:05;20.27;;;4.32;;
9384;SDS011;4732;49.340;10.886;2023-10-09T11:51:44;12.73;;;3.70;;
9384;SDS011;4732;49.340;10.886;2023-10-09T11:54:32;18.77;;;4.38;;
9384;SDS011;4732;49.340;10.886;2023-10-09T11:57:02;20.95;;;4.03;;
9384;SDS011;4732;49.340;10.886;2023-10-09T11:59:28;11.88;;;3.80;;
9384;SDS011;4732;49.340;10.886;2023-10-09T12:02:03;13.95;;;3.92;;
9384;SDS011;4732;49.340;10.886;2023-10-09T12:04:37;15.10;;;4.25;;
9384;SDS011;4732;49.340;10.886;2023-10-09T12:07:07;16.77;;;4.43;;
9384;SDS011;4732;49.340;10.886;2023-10-09T12:09:40;15.82;;;3.67;;
9384;SDS011;4732;49.340;10.886;2023-10-09T12:12:06;16.63;;;4.22;;
9384;SDS011;4732;49.340;10.886;2023-10-09T12:14:36;12.55;;;4.03;;
9384;SDS011;4732;49.340;10.886;2023-10-09T12:17:04;12.98;;;4.10;;
9384;SDS011;4732;49.340;10.886;2023-10-09T12:19:34;9.23;;;3.05;;
9384;SDS011;4732;49.340;10.886;2023-10-09T12:22:04;14.30;;;4.07;;
9384;SDS011;4732;49.340;10.886;2023-10-09T12:24:31;14.45;;;3.95;;
9384;SDS011;4732;49.340;10.886;2023-10-09T12:26:58;14.23;;;3.92;;
9384;SDS011;4732;49.340;10.886;2023-10-09T12:29:24;18.02;;;3.80;;
9384;SDS011;4732;49.340;10.886;2023-10-09T12:32:02;12.25;;;3.72;;
9384;SDS011;4732;49.340;10.886;2023-10-09T12:34:29;11.43;;;3.80;;
9384;SDS011;4732;49.340;10.886;2023-10-09T12:36:58;17.58;;;4.75;;
9384;SDS011;4732;49.340;10.886;2023-10-09T12:39:27;16.50;;;3.58;;
9384;SDS011;4732;49.340;10.886;2023-10-09T12:41:58;13.43;;;4.68;;
9384;SDS011;4732;49.340;10.886;2023-10-09T12:44:31;11.93;;;4.00;;
9384;SDS011;4732;49.340;10.886;2023-10-09T12:47:13;9.27;;;3.83;;
9384;SDS011;4732;49.340;10.886;2023-10-09T12:49:38;20.88;;;3.63;;
9384;SDS011;4732;49.340;10.886;2023-10-09T12:52:22;10.13;;;3.30;;
9384;SDS011;4732;49.340;10.886;2023-10-09T12:54:57;13.48;;;4.10;;
9384;SDS011;4732;49.340;10.886;2023-10-09T12:57:23;13.93;;;4.47;;
9384;SDS011;4732;49.340;10.886;2023-10-09T12:59:51;11.90;;;3.65;;
9384;SDS011;4732;49.340;10.886;2023-10-09T13:02:21;13.43;;;3.72;;
9384;SDS011;4732;49.340;10.886;2023-10-09T13:05:01;12.43;;;4.60;;
9384;SDS011;4732;49.340;10.886;2023-10-09T13:07:29;16.27;;;4.22;;
9384;SDS011;4732;49.340;10.886;2023-10-09T13:10:18;13.23;;;3.90;;
9384;SDS011;4732;49.340;10.886;2023-10-09T13:16:36;11.15;;;4.40;;
9384;SDS011;4732;49.340;10.886;2023-10-09T13:19:21;16.48;;;4.30;;
9384;SDS011;4732;49.340;10.886;2023-10-09T13:21:55;11.38;;;4.13;;
9384;SDS011;4732;49.340;10.886;2023-10-09T13:24:28;11.05;;;4.00;;
9384;SDS011;4732;49.340;10.886;2023-10-09T13:27:15;9.55;;;3.97;;
9384;SDS011;4732;49.340;10.886;2023-10-09T13:29:49;7.63;;;3.85;;
9384;SDS011;4732;49.340;10.886;2023-10-09T13:32:50;10.88;;;4.07;;
9384;SDS011;4732;49.340;10.886;2023-10-09T13:35:24;12.70;;;4.13;;
9384;SDS011;4732;49.340;10.886;2023-10-09T13:38:33;14.00;;;4.00;;
9384;SDS011;4732;49.340;10.886;2023-10-09T13:41:24;12.38;;;4.60;;
9384;SDS011;4732;49.340;10.886;2023-10-09T13:43:54;12.10;;;3.97;;
9384;SDS011;4732;49.340;10.886;2023-10-09T13:46:21;8.05;;;3.63;;
9384;SDS011;4732;49.340;10.886;2023-10-09T13:48:48;11.27;;;3.90;;
9384;SDS011;4732;49.340;10.886;2023-10-09T13:51:22;9.75;;;3.90;;
9384;SDS011;4732;49.340;10.886;2023-10-09T13:54:08;10.50;;;4.00;;
9384;SDS011;4732;49.340;10.886;2023-10-09T13:56:45;11.88;;;4.20;;
9384;SDS011;4732;49.340;10.886;2023-10-09T13:59:19;10.88;;;3.97;;
9384;SDS011;4732;49.340;10.886;2023-10-09T14:02:01;12.05;;;4.32;;
9384;SDS011;4732;49.340;10.886;2023-10-09T14:05:03;10.88;;;4.43;;
9384;SDS011;4732;49.340;10.886;2023-10-09T14:10:41;14.15;;;3.50;;
9384;SDS011;4732;49.340;10.886;2023-10-09T14:13:13;7.80;;;4.03;;
9384;SDS011;4732;49.340;10.886;2023-10-09T14:15:39;8.90;;;3.58;;
9384;SDS011;4732;49.340;10.886;2023-10-09T14:18:06;12.32;;;4.13;;
9384;SDS011;4732;49.340;10.886;2023-10-09T14:20:34;8.80;;;3.95;;
9384;SDS011;4732;49.340;10.886;2023-10-09T14:23:00;14.18;;;4.50;;
9384;SDS011;4732;49.340;10.886;2023-10-09T14:29:31;10.93;;;3.92;;
9384;SDS011;4732;49.340;10.886;2023-10-09T14:32:08;8.95;;;4.00;;
9384;SDS011;4732;49.340;10.886;2023-10-09T14:34:46;9.35;;;4.05;;
9384;SDS011;4732;49.340;10.886;2023-10-09T14:37:33;16.10;;;4.20;;
9384;SDS011;4732;49.340;10.886;2023-10-09T14:40:04;10.43;;;3.88;;
9384;SDS011;4732;49.340;10.886;2023-10-09T14:42:37;7.45;;;3.58;;
9384;SDS011;4732;49.340;10.886;2023-10-09T14:45:09;10.68;;;4.03;;
9384;SDS011;4732;49.340;10.886;2023-10-09T14:47:40;11.05;;;3.70;;
9384;SDS011;4732;49.340;10.886;2023-10-09T14:50:06;11.25;;;4.00;;
9384;SDS011;4732;49.340;10.886;2023-10-09T14:52:38;8.82;;;3.97;;
9384;SDS011;4732;49.340;10.886;2023-10-09T14:55:04;10.10;;;3.88;;
9384;SDS011;4732;49.340;10.886;2023-10-09T14:57:52;19.35;;;4.20;;
9384;SDS011;4732;49.340;10.886;2023-10-09T15:00:44;13.05;;;4.13;;
9384;SDS011;4732;49.340;10.886;2023-10-09T15:03:24;11.57;;;5.00;;
9384;SDS011;4732;49.340;10.886;2023-10-09T15:05:53;11.55;;;3.88;;
9384;SDS011;4732;49.340;10.886;2023-10-09T15:08:20;10.38;;;4.00;;
9384;SDS011;4732;49.340;10.886;2023-10-09T15:10:50;10.57;;;4.05;;
9384;SDS011;4732;49.340;10.886;2023-10-09T15:13:21;10.50;;;4.20;;
9384;SDS011;4732;49.340;10.886;2023-10-09T15:15:58;9.00;;;4.30;;
9384;SDS011;4732;49.340;10.886;2023-10-09T15:18:28;10.98;;;4.40;;
9384;SDS011;4732;49.340;10.886;2023-10-09T15:21:04;8.98;;;4.03;;
9384;SDS011;4732;49.340;10.886;2023-10-09T15:23:33;12.18;;;4.03;;
9384;SDS011;4732;49.340;10.886;2023-10-09T15:26:03;15.25;;;4.03;;
9384;SDS011;4732;49.340;10.886;2023-10-09T15:28:31;10.68;;;4.28;;
9384;SDS011;4732;49.340;10.886;2023-10-09T15:31:07;12.23;;;4.57;;
9384;SDS011;4732;49.340;10.886;2023-10-09T15:33:36;12.20;;;5.00;;
9384;SDS011;4732;49.340;10.886;2023-10-09T15:36:08;13.02;;;4.13;;
9384;SDS011;4732;49.340;10.886;2023-10-09T15:38:38;9.90;;;4.28;;
9384;SDS011;4732;49.340;10.886;2023-10-09T15:41:03;16.17;;;4.88;;
9384;SDS011;4732;49.340;10.886;2023-10-09T15:43:31;10.88;;;4.10;;
9384;SDS011;4732;49.340;10.886;2023-10-09T15:45:58;14.60;;;4.57;;
9384;SDS011;4732;49.340;10.886;2023-10-09T15:48:24;11.52;;;4.55;;
9384;SDS011;4732;49.340;10.886;2023-10-09T15:50:49;10.90;;;4.35;;
9384;SDS011;4732;49.340;10.886;2023-10-09T15:53:16;14.88;;;4.95;;
9384;SDS011;4732;49.340;10.886;2023-10-09T15:55:45;8.82;;;4.32;;
9384;SDS011;4732;49.340;10.886;2023-10-09T15:58:11;8.95;;;4.20;;
9384;SDS011;4732;49.340;10.886;2023-10-09T16:00:37;10.00;;;4.15;;
9384;SDS011;4732;49.340;10.886;2023-10-09T16:03:04;11.38;;;3.63;;
9384;SDS011;4732;49.340;10.886;2023-10-09T16:05:33;12.38;;;4.32;;
9384;SDS011;4732;49.340;10.886;2023-10-09T16:08:00;8.90;;;4.30;;
9384;SDS011;4732;49.340;10.886;2023-10-09T16:10:28;11.80;;;4.47;;
9384;SDS011;4732;49.340;10.886;2023-10-09T16:12:56;8.30;;;4.25;;
9384;SDS011;4732;49.340;10.886;2023-10-09T16:15:22;9.43;;;4.38;;
9384;SDS011;4732;49.340;10.886;2023-10-09T16:17:49;11.05;;;4.28;;
9384;SDS011;4732;49.340;10.886;2023-10-09T16:20:24;12.93;;;4.80;;
9384;SDS011;4732;49.340;10.886;2023-10-09T16:22:50;9.00;;;4.18;;
9384;SDS011;4732;49.340;10.886;2023-10-09T16:25:16;9.90;;;4.65;;
9384;SDS011;4732;49.340;10.886;2023-10-09T16:27:45;7.53;;;4.47;;
9384;SDS011;4732;49.340;10.886;2023-10-09T16:30:21;10.85;;;4.40;;
9384;SDS011;4732;49.340;10.886;2023-10-09T16:32:47;15.75;;;4.80;;
9384;SDS011;4732;49.340;10.886;2023-10-09T16:35:13;16.95;;;5.30;;
9384;SDS011;4732;49.340;10.886;2023-10-09T16:37:39;12.90;;;4.93;;
9384;SDS011;4732;49.340;10.886;2023-10-09T16:40:14;14.35;;;4.78;;
9384;SDS011;4732;49.340;10.886;2023-10-09T16:42:45;9.18;;;4.65;;
9384;SDS011;4732;49.340;10.886;2023-10-09T16:45:11;11.65;;;4.63;;
9384;SDS011;4732;49.340;10.886;2023-10-09T16:47:48;10.75;;;4.57;;
9384;SDS011;4732;49.340;10.886;2023-10-09T16:50:24;11.57;;;4.68;;
9384;SDS011;4732;49.340;10.886;2023-10-09T16:52:53;7.95;;;4.40;;
9384;SDS011;4732;49.340;10.886;2023-10-09T16:55:19;7.95;;;3.92;;
9384;SDS011;4732;49.340;10.886;2023-10-09T16:57:45;10.70;;;4.43;;
9384;SDS011;4732;49.340;10.886;2023-10-09T17:00:15;12.77;;;4.88;;
9384;SDS011;4732;49.340;10.886;2023-10-09T17:02:53;14.30;;;5.20;;
9384;SDS011;4732;49.340;10.886;2023-10-09T17:05:23;15.88;;;4.93;;
9384;SDS011;4732;49.340;10.886;2023-10-09T17:07:57;14.48;;;5.25;;
9384;SDS011;4732;49.340;10.886;2023-10-09T17:10:26;17.42;;;6.13;;
9384;SDS011;4732;49.340;10.886;2023-10-09T17:12:59;9.32;;;4.55;;
9384;SDS011;4732;49.340;10.886;2023-10-09T17:15:25;15.63;;;4.85;;
9384;SDS011;4732;49.340;10.886;2023-10-09T17:17:58;15.30;;;4.68;;
9384;SDS011;4732;49.340;10.886;2023-10-09T17:20:25;9.85;;;4.80;;
9384;SDS011;4732;49.340;10.886;2023-10-09T17:22:52;12.45;;;4.70;;
9384;SDS011;4732;49.340;10.886;2023-10-09T17:25:18;8.38;;;4.63;;
9384;SDS011;4732;49.340;10.886;2023-10-09T17:27:44;12.77;;;5.28;;
9384;SDS011;4732;49.340;10.886;2023-10-09T17:30:10;9.48;;;5.03;;
9384;SDS011;4732;49.340;10.886;2023-10-09T17:32:43;10.38;;;4.88;;
9384;SDS011;4732;49.340;10.886;2023-10-09T17:35:10;7.95;;;4.13;;
9384;SDS011;4732;49.340;10.886;2023-10-09T17:37:37;18.60;;;5.22;;
9384;SDS011;4732;49.340;10.886;2023-10-09T17:40:06;11.18;;;5.00;;
9384;SDS011;4732;49.340;10.886;2023-10-09T17:42:33;11.30;;;5.10;;
9384;SDS011;4732;49.340;10.886;2023-10-09T17:45:00;14.43;;;4.95;;
9384;SDS011;4732;49.340;10.886;2023-10-09T17:47:30;9.30;;;4.43;;
9384;SDS011;4732;49.340;10.886;2023-10-09T17:50:02;10.45;;;4.78;;
9384;SDS011;4732;49.340;10.886;2023-10-09T17:52:38;13.45;;;4.95;;
9384;SDS011;4732;49.340;10.886;2023-10-09T17:55:04;12.02;;;5.30;;
9384;SDS011;4732;49.340;10.886;2023-10-09T17:57:33;10.00;;;4.80;;
9384;SDS011;4732;49.340;10.886;2023-10-09T17:59:59;20.58;;;5.32;;
9384;SDS011;4732;49.340;10.886;2023-10-09T18:02:28;10.70;;;5.35;;
9384;SDS011;4732;49.340;10.886;2023-10-09T18:04:55;10.57;;;4.60;;
9384;SDS011;4732;49.340;10.886;2023-10-09T18:07:21;9.35;;;4.38;;
9384;SDS011;4732;49.340;10.886;2023-10-09T18:09:48;8.38;;;4.20;;
9384;SDS011;4732;49.340;10.886;2023-10-09T18:12:18;10.57;;;5.00;;
9384;SDS011;4732;49.340;10.886;2023-10-09T18:14:47;8.90;;;4.60;;
9384;SDS011;4732;49.340;10.886;2023-10-09T18:17:18;12.65;;;4.72;;
9384;SDS011;4732;49.340;10.886;2023-10-09T18:19:48;12.70;;;4.40;;
9384;SDS011;4732;49.340;10.886;2023-10-09T18:22:16;8.75;;;4.13;;
9384;SDS011;4732;49.340;10.886;2023-10-09T18:24:42;12.68;;;4.55;;
9384;SDS011;4732;49.340;10.886;2023-10-09T18:27:08;5.95;;;3.95;;
9384;SDS011;4732;49.340;10.886;2023-10-09T18:29:39;7.80;;;4.50;;
9384;SDS011;4732;49.340;10.886;2023-10-09T18:32:05;6.28;;;4.25;;
9384;SDS011;4732;49.340;10.886;2023-10-09T18:34:30;15.18;;;5.18;;
9384;SDS011;4732;49.340;10.886;2023-10-09T18:36:56;14.18;;;4.88;;
9384;SDS011;4732;49.340;10.886;2023-10-09T18:39:22;13.43;;;5.40;;
9384;SDS011;4732;49.340;10.886;2023-10-09T18:41:50;9.95;;;5.22;;
9384;SDS011;4732;49.340;10.886;2023-10-09T18:44:19;9.02;;;5.28;;
9384;SDS011;4732;49.340;10.886;2023-10-09T18:46:48;11.00;;;5.90;;
9384;SDS011;4732;49.340;10.886;2023-10-09T18:49:13;13.63;;;6.70;;
9384;SDS011;4732;49.340;10.886;2023-10-09T18:51:40;13.85;;;6.60;;
9384;SDS011;4732;49.340;10.886;2023-10-09T18:54:09;11.63;;;5.72;;
9384;SDS011;4732;49.340;10.886;2023-10-09T18:56:35;13.40;;;7.15;;
9384;SDS011;4732;49.340;10.886;2023-10-09T18:59:02;11.85;;;7.10;;
9384;SDS011;4732;49.340;10.886;2023-10-09T19:01:34;15.55;;;7.45;;
9384;SDS011;4732;49.340;10.886;2023-10-09T19:04:00;11.60;;;7.93;;
9384;SDS011;4732;49.340;10.886;2023-10-09T19:06:26;13.10;;;7.47;;
9384;SDS011;4732;49.340;10.886;2023-10-09T19:08:53;12.57;;;7.13;;
9384;SDS011;4732;49.340;10.886;2023-10-09T19:11:20;17.42;;;7.85;;
9384;SDS011;4732;49.340;10.886;2023-10-09T19:13:48;15.70;;;7.10;;
9384;SDS011;4732;49.340;10.886;2023-10-09T19:16:14;14.13;;;7.25;;
9384;SDS011;4732;49.340;10.886;2023-10-09T19:18:40;11.13;;;6.00;;
9384;SDS011;4732;49.340;10.886;2023-10-09T19:21:06;10.85;;;6.20;;
9384;SDS011;4732;49.340;10.886;2023-10-09T19:23:39;12.30;;;6.40;;
9384;SDS011;4732;49.340;10.886;2023-10-09T19:26:06;10.43;;;6.10;;
9384;SDS011;4732;49.340;10.886;2023-10-09T19:28:33;10.07;;;5.60;;
9384;SDS011;4732;49.340;10.886;2023-10-09T19:31:07;16.52;;;6.88;;
9384;SDS011;4732;49.340;10.886;2023-10-09T19:33:40;13.80;;;6.22;;
9384;SDS011;4732;49.340;10.886;2023-10-09T19:36:09;10.98;;;6.43;;
9384;SDS011;4732;49.340;10.886;2023-10-09T19:38:37;11.70;;;5.90;;
9384;SDS011;4732;49.340;10.886;2023-10-09T19:41:03;9.55;;;5.63;;
9384;SDS011;4732;49.340;10.886;2023-10-09T19:43:29;10.57;;;5.80;;
9384;SDS011;4732;49.340;10.886;2023-10-09T19:46:05;11.93;;;6.05;;
9384;SDS011;4732;49.340;10.886;2023-10-09T19:48:31;12.45;;;5.80;;
9384;SDS011;4732;49.340;10.886;2023-10-09T19:51:04;10.52;;;5.40;;
9384;SDS011;4732;49.340;10.886;2023-10-09T19:53:32;9.15;;;5.63;;
9384;SDS011;4732;49.340;10.886;2023-10-09T19:56:00;10.98;;;6.43;;
9384;SDS011;4732;49.340;10.886;2023-10-09T19:58:27;12.70;;;6.60;;
9384;SDS011;4732;49.340;10.886;2023-10-09T20:00:57;11.95;;;6.20;;
9384;SDS011;4732;49.340;10.886;2023-10-09T20:03:23;15.15;;;6.70;;
9384;SDS011;4732;49.340;10.886;2023-10-09T20:05:48;12.85;;;6.55;;
9384;SDS011;4732;49.340;10.886;2023-10-09T20:08:14;15.15;;;6.35;;
9384;SDS011;4732;49.340;10.886;2023-10-09T20:10:41;12.50;;;6.25;;
9384;SDS011;4732;49.340;10.886;2023-10-09T20:13:09;11.95;;;6.18;;
9384;SDS011;4732;49.340;10.886;2023-10-09T20:15:36;13.00;;;5.57;;
9384;SDS011;4732;49.340;10.886;2023-10-09T20:18:07;13.52;;;6.15;;
9384;SDS011;4732;49.340;10.886;2023-10-09T20:20:41;17.00;;;5.85;;
9384;SDS011;4732;49.340;10.886;2023-10-09T20:23:10;14.90;;;6.07;;
9384;SDS011;4732;49.340;10.886;2023-10-09T20:25:38;15.00;;;5.82;;
9384;SDS011;4732;49.340;10.886;2023-10-09T20:28:04;18.45;;;6.47;;
9384;SDS011;4732;49.340;10.886;2023-10-09T20:30:30;15.13;;;6.13;;
9384;SDS011;4732;49.340;10.886;2023-10-09T20:33:00;10.90;;;6.20;;
9384;SDS011;4732;49.340;10.886;2023-10-09T20:35:25;11.88;;;5.80;;
9384;SDS011;4732;49.340;10.886;2023-10-09T20:37:53;13.85;;;5.90;;
9384;SDS011;4732;49.340;10.886;2023-10-09T20:40:26;9.68;;;5.03;;
9384;SDS011;4732;49.340;10.886;2023-10-09T20:42:54;9.77;;;5.65;;
9384;SDS011;4732;49.340;10.886;2023-10-09T20:45:21;13.30;;;4.85;;
9384;SDS011;4732;49.340;10.886;2023-10-09T20:47:48;11.27;;;4.90;;
9384;SDS011;4732;49.340;10.886;2023-10-09T20:50:21;11.20;;;5.05;;
9384;SDS011;4732;49.340;10.886;2023-10-09T20:52:47;7.43;;;4.28;;
9384;SDS011;4732;49.340;10.886;2023-10-09T20:55:14;8.30;;;4.47;;
9384;SDS011;4732;49.340;10.886;2023-10-09T20:57:54;13.05;;;5.25;;
9384;SDS011;4732;49.340;10.886;2023-10-09T21:00:21;8.52;;;4.97;;
9384;SDS011;4732;49.340;10.886;2023-10-09T21:02:48;10.80;;;4.75;;
9384;SDS011;4732;49.340;10.886;2023-10-09T21:05:16;10.50;;;4.97;;
9384;SDS011;4732;49.340;10.886;2023-10-09T21:07:43;9.35;;;4.90;;
9384;SDS011;4732;49.340;10.886;2023-10-09T21:10:10;11.32;;;5.20;;
9384;SDS011;4732;49.340;10.886;2023-10-09T21:12:39;10.38;;;5.20;;
9384;SDS011;4732;49.340;10.886;2023-10-09T21:15:11;9.98;;;4.85;;
9384;SDS011;4732;49.340;10.886;2023-10-09T21:17:40;13.32;;;6.03;;
9384;SDS011;4732;49.340;10.886;2023-10-09T21:20:06;10.80;;;5.78;;
9384;SDS011;4732;49.340;10.886;2023-10-09T21:22:41;14.40;;;5.53;;
9384;SDS011;4732;49.340;10.886;2023-10-09T21:25:19;18.77;;;5.70;;
9384;SDS011;4732;49.340;10.886;2023-10-09T21:27:45;7.88;;;5.07;;
9384;SDS011;4732;49.340;10.886;2023-10-09T21:30:12;11.27;;;5.80;;
9384;SDS011;4732;49.340;10.886;2023-10-09T21:32:44;13.07;;;6.10;;
9384;SDS011;4732;49.340;10.886;2023-10-09T21:35:10;14.20;;;5.97;;
9384;SDS011;4732;49.340;10.886;2023-10-09T21:37:47;10.30;;;5.72;;
9384;SDS011;4732;49.340;10.886;2023-10-09T21:40:17;10.50;;;5.07;;
9384;SDS011;4732;49.340;10.886;2023-10-09T21:42:53;10.25;;;5.45;;
9384;SDS011;4732;49.340;10.886;2023-10-09T21:45:23;10.57;;;4.75;;
9384;SDS011;4732;49.340;10.886;2023-10-09T21:47:50;15.98;;;5.65;;
9384;SDS011;4732;49.340;10.886;2023-10-09T21:52:50;9.55;;;4.93;;
9384;SDS011;4732;49.340;10.886;2023-10-09T21:55:16;9.93;;;4.97;;
9384;SDS011;4732;49.340;10.886;2023-10-09T21:57:42;12.52;;;5.20;;
9384;SDS011;4732;49.340;10.886;2023-10-09T22:00:09;10.57;;;4.88;;
9384;SDS011;4732;49.340;10.886;2023-10-09T22:02:39;10.50;;;5.32;;
9384;SDS011;4732;49.340;10.886;2023-10-09T22:05:06;10.85;;;5.70;;
9384;SDS011;4732;49.340;10.886;2023-10-09T22:07:34;10.73;;;5.18;;
9384;SDS011;4732;49.340;10.886;2023-10-09T22:10:03;11.05;;;4.90;;
9384;SDS011;4732;49.340;10.886;2023-10-09T22:12:30;10.70;;;5.05;;
9384;SDS011;4732;49.340;10.886;2023-10-09T22:14:56;10.63;;;4.97;;
